sensor_id;sensor_type;location;lat;lon;timestamp;temperature;humidity
32614;DHT22;19031;51.400;6.770;2024-01-07T00:02:16;3.10;99.90
32614;DHT22;19031;51.400;6.770;2024-01-07T00:04:43;3.00;99.90
32614;DHT22;19031;51.400;6.770;2024-01-07T00:07:09;3.00;99.90
32614;DHT22;19031;51.400;6.770;2024-01-07T00:09:34;3.10;99.90
32614;DHT22;19031;51.400;6.770;2024-01-07T00:12:00;3.00;99.90
32614;DHT22;19031;51.400;6.770;2024-01-07T00:14:26;3.10;99.90
32614;DHT22;19031;51.400;6.770;2024-01-07T00:16:51;3.10;99.90
32614;DHT22;19031;51.400;6.770;2024-01-07T00:19:17;3.10;99.90
32614;DHT22;19031;51.400;6.770;2024-01-07T00:21:42;3.10;99.90
32614;DHT22;19031;51.400;6.770;2024-01-07T00:24:08;3.10;99.90
32614;DHT22;19031;51.400;6.770;2024-01-07T00:26:33;3.00;99.90
32614;DHT22;19031;51.400;6.770;2024-01-07T00:28:59;3.10;99.90
32614;DHT22;19031;51.400;6.770;2024-01-07T00:31:24;3.10;99.90
32614;DHT22;19031;51.400;6.770;2024-01-07T00:33:50;3.00;99.90
32614;DHT22;19031;51.400;6.770;2024-01-07T00:36:15;3.00;99.90
32614;DHT22;19031;51.400;6.770;2024-01-07T00:38:41;2.80;99.90
32614;DHT22;19031;51.400;6.770;2024-01-07T00:41:06;2.90;99.90
32614;DHT22;19031;51.400;6.770;2024-01-07T00:43:32;2.90;99.90
32614;DHT22;19031;51.400;6.770;2024-01-07T00:45:57;3.00;99.90
32614;DHT22;19031;51.400;6.770;2024-01-07T00:48:23;3.00;99.90
32614;DHT22;19031;51.400;6.770;2024-01-07T00:50:48;2.90;99.90
32614;DHT22;19031;51.400;6.770;2024-01-07T00:53:14;2.90;99.90
32614;DHT22;19031;51.400;6.770;2024-01-07T00:55:39;2.80;99.90
32614;DHT22;19031;51.400;6.770;2024-01-07T00:58:05;3.00;99.90
32614;DHT22;19031;51.400;6.770;2024-01-07T01:00:30;2.90;99.90
32614;DHT22;19031;51.400;6.770;2024-01-07T01:02:56;3.00;99.90
32614;DHT22;19031;51.400;6.770;2024-01-07T01:05:22;2.90;99.90
32614;DHT22;19031;51.400;6.770;2024-01-07T01:07:47;2.90;99.90
32614;DHT22;19031;51.400;6.770;2024-01-07T01:10:13;2.90;99.90
32614;DHT22;19031;51.400;6.770;2024-01-07T01:12:42;2.90;99.90
32614;DHT22;19031;51.400;6.770;2024-01-07T01:15:08;3.00;99.90
32614;DHT22;19031;51.400;6.770;2024-01-07T01:17:34;3.00;99.90
32614;DHT22;19031;51.400;6.770;2024-01-07T01:19:59;2.90;99.90
32614;DHT22;19031;51.400;6.770;2024-01-07T01:22:25;2.80;99.90
32614;DHT22;19031;51.400;6.770;2024-01-07T01:24:50;2.90;99.90
32614;DHT22;19031;51.400;6.770;2024-01-07T01:27:18;3.00;99.90
32614;DHT22;19031;51.400;6.770;2024-01-07T01:29:44;2.90;99.90
32614;DHT22;19031;51.400;6.770;2024-01-07T01:32:09;2.90;99.90
32614;DHT22;19031;51.400;6.770;2024-01-07T01:34:35;2.80;99.90
32614;DHT22;19031;51.400;6.770;2024-01-07T01:37:01;2.80;99.90
32614;DHT22;19031;51.400;6.770;2024-01-07T01:39:27;2.80;99.90
32614;DHT22;19031;51.400;6.770;2024-01-07T01:41:53;2.90;99.90
32614;DHT22;19031;51.400;6.770;2024-01-07T01:44:18;2.80;99.90
32614;DHT22;19031;51.400;6.770;2024-01-07T01:46:45;3.00;99.90
32614;DHT22;19031;51.400;6.770;2024-01-07T01:49:11;2.90;99.90
32614;DHT22;19031;51.400;6.770;2024-01-07T01:51:37;2.80;99.90
32614;DHT22;19031;51.400;6.770;2024-01-07T01:54:02;2.80;99.90
32614;DHT22;19031;51.400;6.770;2024-01-07T01:56:28;2.90;99.90
32614;DHT22;19031;51.400;6.770;2024-01-07T01:58:55;3.00;99.90
32614;DHT22;19031;51.400;6.770;2024-01-07T02:01:22;3.00;99.90
32614;DHT22;19031;51.400;6.770;2024-01-07T02:03:48;3.00;99.90
32614;DHT22;19031;51.400;6.770;2024-01-07T02:06:14;2.90;99.90
32614;DHT22;19031;51.400;6.770;2024-01-07T02:08:41;2.90;99.90
32614;DHT22;19031;51.400;6.770;2024-01-07T02:11:19;2.80;99.90
32614;DHT22;19031;51.400;6.770;2024-01-07T02:13:45;2.70;99.90
32614;DHT22;19031;51.400;6.770;2024-01-07T02:16:11;2.80;99.90
32614;DHT22;19031;51.400;6.770;2024-01-07T02:18:39;2.80;99.90
32614;DHT22;19031;51.400;6.770;2024-01-07T02:21:06;2.80;99.90
32614;DHT22;19031;51.400;6.770;2024-01-07T02:23:32;2.70;99.90
32614;DHT22;19031;51.400;6.770;2024-01-07T02:25:58;2.70;99.90
32614;DHT22;19031;51.400;6.770;2024-01-07T02:28:23;2.80;99.90
32614;DHT22;19031;51.400;6.770;2024-01-07T02:30:49;2.80;99.90
32614;DHT22;19031;51.400;6.770;2024-01-07T02:33:14;2.70;99.90
32614;DHT22;19031;51.400;6.770;2024-01-07T02:35:40;2.70;99.90
32614;DHT22;19031;51.400;6.770;2024-01-07T02:38:05;2.60;99.90
32614;DHT22;19031;51.400;6.770;2024-01-07T02:40:31;2.60;99.90
32614;DHT22;19031;51.400;6.770;2024-01-07T02:42:56;2.60;99.90
32614;DHT22;19031;51.400;6.770;2024-01-07T02:45:22;2.50;99.90
32614;DHT22;19031;51.400;6.770;2024-01-07T02:47:48;2.50;99.90
32614;DHT22;19031;51.400;6.770;2024-01-07T02:50:13;2.50;99.90
32614;DHT22;19031;51.400;6.770;2024-01-07T02:52:39;2.50;99.90
32614;DHT22;19031;51.400;6.770;2024-01-07T02:55:06;2.40;99.90
32614;DHT22;19031;51.400;6.770;2024-01-07T02:57:32;2.50;99.90
32614;DHT22;19031;51.400;6.770;2024-01-07T02:59:57;2.50;99.90
32614;DHT22;19031;51.400;6.770;2024-01-07T03:02:23;2.50;99.90
32614;DHT22;19031;51.400;6.770;2024-01-07T03:04:48;2.50;99.90
32614;DHT22;19031;51.400;6.770;2024-01-07T03:07:14;2.50;99.90
32614;DHT22;19031;51.400;6.770;2024-01-07T03:09:39;2.50;99.90
32614;DHT22;19031;51.400;6.770;2024-01-07T03:12:05;2.40;99.90
32614;DHT22;19031;51.400;6.770;2024-01-07T03:14:31;2.50;99.90
32614;DHT22;19031;51.400;6.770;2024-01-07T03:16:56;2.50;99.90
32614;DHT22;19031;51.400;6.770;2024-01-07T03:19:22;2.50;99.90
32614;DHT22;19031;51.400;6.770;2024-01-07T03:21:50;2.40;99.90
32614;DHT22;19031;51.400;6.770;2024-01-07T03:24:16;2.40;99.90
32614;DHT22;19031;51.400;6.770;2024-01-07T03:26:42;2.40;99.90
32614;DHT22;19031;51.400;6.770;2024-01-07T03:29:07;2.40;99.90
32614;DHT22;19031;51.400;6.770;2024-01-07T03:31:33;2.40;99.90
32614;DHT22;19031;51.400;6.770;2024-01-07T03:33:58;2.40;99.90
32614;DHT22;19031;51.400;6.770;2024-01-07T03:36:24;2.40;99.90
32614;DHT22;19031;51.400;6.770;2024-01-07T03:38:50;2.30;99.90
32614;DHT22;19031;51.400;6.770;2024-01-07T03:41:19;2.30;99.90
32614;DHT22;19031;51.400;6.770;2024-01-07T03:43:48;2.30;99.90
32614;DHT22;19031;51.400;6.770;2024-01-07T03:46:14;2.40;99.90
32614;DHT22;19031;51.400;6.770;2024-01-07T03:48:41;2.40;99.90
32614;DHT22;19031;51.400;6.770;2024-01-07T03:51:07;2.40;99.90
32614;DHT22;19031;51.400;6.770;2024-01-07T03:53:33;2.30;99.90
32614;DHT22;19031;51.400;6.770;2024-01-07T03:55:58;2.40;99.90
32614;DHT22;19031;51.400;6.770;2024-01-07T03:58:24;2.40;99.90
32614;DHT22;19031;51.400;6.770;2024-01-07T04:00:49;2.30;99.90
32614;DHT22;19031;51.400;6.770;2024-01-07T04:03:15;2.10;99.90
32614;DHT22;19031;51.400;6.770;2024-01-07T04:05:40;2.10;99.90
32614;DHT22;19031;51.400;6.770;2024-01-07T04:08:09;2.20;99.90
32614;DHT22;19031;51.400;6.770;2024-01-07T04:10:34;2.10;99.90
32614;DHT22;19031;51.400;6.770;2024-01-07T04:13:00;2.20;99.90
32614;DHT22;19031;51.400;6.770;2024-01-07T04:15:25;2.10;99.90
32614;DHT22;19031;51.400;6.770;2024-01-07T04:17:51;2.00;99.90
32614;DHT22;19031;51.400;6.770;2024-01-07T04:20:16;2.10;99.90
32614;DHT22;19031;51.400;6.770;2024-01-07T04:22:42;2.10;99.90
32614;DHT22;19031;51.400;6.770;2024-01-07T04:25:07;2.10;99.90
32614;DHT22;19031;51.400;6.770;2024-01-07T04:27:39;2.20;99.90
32614;DHT22;19031;51.400;6.770;2024-01-07T04:30:05;2.20;99.90
32614;DHT22;19031;51.400;6.770;2024-01-07T04:32:32;2.30;99.90
32614;DHT22;19031;51.400;6.770;2024-01-07T04:34:57;2.30;99.90
32614;DHT22;19031;51.400;6.770;2024-01-07T04:37:26;2.30;99.90
32614;DHT22;19031;51.400;6.770;2024-01-07T04:39:51;2.30;99.90
32614;DHT22;19031;51.400;6.770;2024-01-07T04:42:17;2.30;99.90
32614;DHT22;19031;51.400;6.770;2024-01-07T04:44:43;2.30;99.90
32614;DHT22;19031;51.400;6.770;2024-01-07T04:47:27;2.10;99.90
32614;DHT22;19031;51.400;6.770;2024-01-07T04:49:54;2.00;99.90
32614;DHT22;19031;51.400;6.770;2024-01-07T04:52:19;1.90;99.90
32614;DHT22;19031;51.400;6.770;2024-01-07T04:54:45;2.00;99.90
32614;DHT22;19031;51.400;6.770;2024-01-07T04:57:11;2.00;99.90
32614;DHT22;19031;51.400;6.770;2024-01-07T04:59:36;1.90;99.90
32614;DHT22;19031;51.400;6.770;2024-01-07T05:02:02;2.00;99.90
32614;DHT22;19031;51.400;6.770;2024-01-07T05:04:28;2.00;99.90
32614;DHT22;19031;51.400;6.770;2024-01-07T05:06:53;2.00;99.90
32614;DHT22;19031;51.400;6.770;2024-01-07T05:09:19;1.90;99.90
32614;DHT22;19031;51.400;6.770;2024-01-07T05:11:44;1.90;99.90
32614;DHT22;19031;51.400;6.770;2024-01-07T05:14:11;1.90;99.90
32614;DHT22;19031;51.400;6.770;2024-01-07T05:16:37;1.90;99.90
32614;DHT22;19031;51.400;6.770;2024-01-07T05:19:02;1.90;99.90
32614;DHT22;19031;51.400;6.770;2024-01-07T05:21:28;1.90;99.90
32614;DHT22;19031;51.400;6.770;2024-01-07T05:23:54;1.80;99.90
32614;DHT22;19031;51.400;6.770;2024-01-07T05:26:20;1.90;99.90
32614;DHT22;19031;51.400;6.770;2024-01-07T05:28:46;1.90;99.90
32614;DHT22;19031;51.400;6.770;2024-01-07T05:31:18;2.00;99.90
32614;DHT22;19031;51.400;6.770;2024-01-07T05:33:44;1.90;99.90
32614;DHT22;19031;51.400;6.770;2024-01-07T05:36:14;1.90;99.90
32614;DHT22;19031;51.400;6.770;2024-01-07T05:38:41;1.80;99.90
32614;DHT22;19031;51.400;6.770;2024-01-07T05:41:07;1.80;99.90
32614;DHT22;19031;51.400;6.770;2024-01-07T05:43:32;1.80;99.90
32614;DHT22;19031;51.400;6.770;2024-01-07T05:45:58;1.90;99.90
32614;DHT22;19031;51.400;6.770;2024-01-07T05:48:23;1.90;99.90
32614;DHT22;19031;51.400;6.770;2024-01-07T05:50:49;1.90;99.90
32614;DHT22;19031;51.400;6.770;2024-01-07T05:53:17;1.90;99.90
32614;DHT22;19031;51.400;6.770;2024-01-07T05:55:42;1.80;99.90
32614;DHT22;19031;51.400;6.770;2024-01-07T05:58:08;1.90;99.90
32614;DHT22;19031;51.400;6.770;2024-01-07T06:00:33;1.90;99.90
32614;DHT22;19031;51.400;6.770;2024-01-07T06:02:59;1.80;99.90
32614;DHT22;19031;51.400;6.770;2024-01-07T06:05:25;1.80;99.90
32614;DHT22;19031;51.400;6.770;2024-01-07T06:07:51;1.70;99.90
32614;DHT22;19031;51.400;6.770;2024-01-07T06:10:17;1.80;99.90
32614;DHT22;19031;51.400;6.770;2024-01-07T06:12:42;1.80;99.90
32614;DHT22;19031;51.400;6.770;2024-01-07T06:15:08;1.80;99.90
32614;DHT22;19031;51.400;6.770;2024-01-07T06:17:33;1.90;99.90
32614;DHT22;19031;51.400;6.770;2024-01-07T06:19:59;1.80;99.90
32614;DHT22;19031;51.400;6.770;2024-01-07T06:22:24;1.80;99.90
32614;DHT22;19031;51.400;6.770;2024-01-07T06:24:50;1.80;99.90
32614;DHT22;19031;51.400;6.770;2024-01-07T06:27:16;1.70;99.90
32614;DHT22;19031;51.400;6.770;2024-01-07T06:29:41;1.70;99.90
32614;DHT22;19031;51.400;6.770;2024-01-07T06:32:07;1.70;99.90
32614;DHT22;19031;51.400;6.770;2024-01-07T06:34:32;1.70;99.90
32614;DHT22;19031;51.400;6.770;2024-01-07T06:36:58;1.80;99.90
32614;DHT22;19031;51.400;6.770;2024-01-07T06:39:24;1.70;99.90
32614;DHT22;19031;51.400;6.770;2024-01-07T06:41:52;1.70;99.90
32614;DHT22;19031;51.400;6.770;2024-01-07T06:44:17;1.70;99.90
32614;DHT22;19031;51.400;6.770;2024-01-07T06:46:43;1.70;99.90
32614;DHT22;19031;51.400;6.770;2024-01-07T06:49:09;1.60;99.90
32614;DHT22;19031;51.400;6.770;2024-01-07T06:51:34;1.70;99.90
32614;DHT22;19031;51.400;6.770;2024-01-07T06:54:00;1.70;99.90
32614;DHT22;19031;51.400;6.770;2024-01-07T06:56:25;1.60;99.90
32614;DHT22;19031;51.400;6.770;2024-01-07T06:58:51;1.60;99.90
32614;DHT22;19031;51.400;6.770;2024-01-07T07:01:19;1.60;99.90
32614;DHT22;19031;51.400;6.770;2024-01-07T07:03:45;1.70;99.90
32614;DHT22;19031;51.400;6.770;2024-01-07T07:06:11;1.70;99.90
32614;DHT22;19031;51.400;6.770;2024-01-07T07:08:38;1.60;99.90
32614;DHT22;19031;51.400;6.770;2024-01-07T07:11:03;1.70;99.90
32614;DHT22;19031;51.400;6.770;2024-01-07T07:13:29;1.70;99.90
32614;DHT22;19031;51.400;6.770;2024-01-07T07:15:54;1.70;99.90
32614;DHT22;19031;51.400;6.770;2024-01-07T07:18:20;1.60;99.90
32614;DHT22;19031;51.400;6.770;2024-01-07T07:20:45;1.60;99.90
32614;DHT22;19031;51.400;6.770;2024-01-07T07:23:11;1.60;99.90
32614;DHT22;19031;51.400;6.770;2024-01-07T07:25:36;1.60;99.90
32614;DHT22;19031;51.400;6.770;2024-01-07T07:28:02;1.60;99.90
32614;DHT22;19031;51.400;6.770;2024-01-07T07:30:28;1.70;99.90
32614;DHT22;19031;51.400;6.770;2024-01-07T07:32:55;1.60;99.90
32614;DHT22;19031;51.400;6.770;2024-01-07T07:35:20;1.70;99.90
32614;DHT22;19031;51.400;6.770;2024-01-07T07:37:46;1.60;99.90
32614;DHT22;19031;51.400;6.770;2024-01-07T07:40:12;1.70;99.90
32614;DHT22;19031;51.400;6.770;2024-01-07T07:42:38;1.80;99.90
32614;DHT22;19031;51.400;6.770;2024-01-07T07:45:04;1.70;99.90
32614;DHT22;19031;51.400;6.770;2024-01-07T07:47:31;1.80;99.90
32614;DHT22;19031;51.400;6.770;2024-01-07T07:49:56;1.80;99.90
32614;DHT22;19031;51.400;6.770;2024-01-07T07:52:22;1.80;99.90
32614;DHT22;19031;51.400;6.770;2024-01-07T07:54:53;1.80;99.90
32614;DHT22;19031;51.400;6.770;2024-01-07T07:57:20;1.70;99.90
32614;DHT22;19031;51.400;6.770;2024-01-07T07:59:48;1.70;99.90
32614;DHT22;19031;51.400;6.770;2024-01-07T08:02:14;1.70;99.90
32614;DHT22;19031;51.400;6.770;2024-01-07T08:04:39;1.70;99.90
32614;DHT22;19031;51.400;6.770;2024-01-07T08:07:08;1.70;99.90
32614;DHT22;19031;51.400;6.770;2024-01-07T08:09:33;1.70;99.90
32614;DHT22;19031;51.400;6.770;2024-01-07T08:12:01;1.60;99.90
32614;DHT22;19031;51.400;6.770;2024-01-07T08:14:26;1.60;99.90
32614;DHT22;19031;51.400;6.770;2024-01-07T08:16:52;1.50;99.90
32614;DHT22;19031;51.400;6.770;2024-01-07T08:19:18;1.60;99.90
32614;DHT22;19031;51.400;6.770;2024-01-07T08:21:43;1.40;99.90
32614;DHT22;19031;51.400;6.770;2024-01-07T08:24:09;1.50;99.90
32614;DHT22;19031;51.400;6.770;2024-01-07T08:26:35;1.50;99.90
32614;DHT22;19031;51.400;6.770;2024-01-07T08:29:01;1.50;99.90
32614;DHT22;19031;51.400;6.770;2024-01-07T08:31:26;1.50;99.90
32614;DHT22;19031;51.400;6.770;2024-01-07T08:33:52;1.40;99.90
32614;DHT22;19031;51.400;6.770;2024-01-07T08:36:17;1.40;99.90
32614;DHT22;19031;51.400;6.770;2024-01-07T08:38:43;1.30;99.90
32614;DHT22;19031;51.400;6.770;2024-01-07T08:41:09;1.30;99.90
32614;DHT22;19031;51.400;6.770;2024-01-07T08:43:35;1.30;99.90
32614;DHT22;19031;51.400;6.770;2024-01-07T08:46:00;1.30;99.90
32614;DHT22;19031;51.400;6.770;2024-01-07T08:48:26;1.30;99.90
32614;DHT22;19031;51.400;6.770;2024-01-07T08:50:51;1.30;99.90
32614;DHT22;19031;51.400;6.770;2024-01-07T08:53:17;1.20;99.90
32614;DHT22;19031;51.400;6.770;2024-01-07T08:55:44;1.20;99.90
32614;DHT22;19031;51.400;6.770;2024-01-07T08:58:09;1.30;99.90
32614;DHT22;19031;51.400;6.770;2024-01-07T09:00:35;1.20;99.90
32614;DHT22;19031;51.400;6.770;2024-01-07T09:03:00;1.30;99.90
32614;DHT22;19031;51.400;6.770;2024-01-07T09:05:26;1.30;99.90
32614;DHT22;19031;51.400;6.770;2024-01-07T09:07:51;1.30;99.90
32614;DHT22;19031;51.400;6.770;2024-01-07T09:10:17;1.40;99.90
32614;DHT22;19031;51.400;6.770;2024-01-07T09:12:44;1.40;99.90
32614;DHT22;19031;51.400;6.770;2024-01-07T09:15:09;1.40;99.90
32614;DHT22;19031;51.400;6.770;2024-01-07T09:17:36;1.50;99.90
32614;DHT22;19031;51.400;6.770;2024-01-07T09:20:04;1.60;99.90
32614;DHT22;19031;51.400;6.770;2024-01-07T09:22:32;1.50;99.90
32614;DHT22;19031;51.400;6.770;2024-01-07T09:24:58;1.50;99.90
32614;DHT22;19031;51.400;6.770;2024-01-07T09:27:23;1.60;99.90
32614;DHT22;19031;51.400;6.770;2024-01-07T09:29:49;1.60;99.90
32614;DHT22;19031;51.400;6.770;2024-01-07T09:32:14;1.50;99.90
32614;DHT22;19031;51.400;6.770;2024-01-07T09:34:40;1.60;99.90
32614;DHT22;19031;51.400;6.770;2024-01-07T09:37:05;1.50;99.90
32614;DHT22;19031;51.400;6.770;2024-01-07T09:39:31;1.50;99.90
32614;DHT22;19031;51.400;6.770;2024-01-07T09:41:57;1.40;99.90
32614;DHT22;19031;51.400;6.770;2024-01-07T09:44:23;1.40;99.90
32614;DHT22;19031;51.400;6.770;2024-01-07T09:46:49;1.40;99.90
32614;DHT22;19031;51.400;6.770;2024-01-07T09:49:17;1.40;99.90
32614;DHT22;19031;51.400;6.770;2024-01-07T09:51:44;1.40;99.90
32614;DHT22;19031;51.400;6.770;2024-01-07T09:54:11;1.40;99.90
32614;DHT22;19031;51.400;6.770;2024-01-07T09:56:43;1.40;99.90
32614;DHT22;19031;51.400;6.770;2024-01-07T09:59:14;1.40;99.90
32614;DHT22;19031;51.400;6.770;2024-01-07T10:01:40;1.40;99.90
32614;DHT22;19031;51.400;6.770;2024-01-07T10:04:06;1.50;99.90
32614;DHT22;19031;51.400;6.770;2024-01-07T10:06:32;1.40;99.90
32614;DHT22;19031;51.400;6.770;2024-01-07T10:08:58;1.40;99.90
32614;DHT22;19031;51.400;6.770;2024-01-07T10:11:24;1.40;99.90
32614;DHT22;19031;51.400;6.770;2024-01-07T10:13:50;1.40;99.90
32614;DHT22;19031;51.400;6.770;2024-01-07T10:16:17;1.40;99.90
32614;DHT22;19031;51.400;6.770;2024-01-07T10:18:43;1.40;99.90
32614;DHT22;19031;51.400;6.770;2024-01-07T10:21:08;1.40;99.90
32614;DHT22;19031;51.400;6.770;2024-01-07T10:23:34;1.40;99.90
32614;DHT22;19031;51.400;6.770;2024-01-07T10:26:00;1.50;99.90
32614;DHT22;19031;51.400;6.770;2024-01-07T10:28:27;1.60;99.90
32614;DHT22;19031;51.400;6.770;2024-01-07T10:30:53;1.50;99.90
32614;DHT22;19031;51.400;6.770;2024-01-07T10:33:18;1.60;99.90
32614;DHT22;19031;51.400;6.770;2024-01-07T10:35:51;1.50;99.90
32614;DHT22;19031;51.400;6.770;2024-01-07T10:38:17;1.70;99.90
32614;DHT22;19031;51.400;6.770;2024-01-07T10:40:43;1.60;99.90
32614;DHT22;19031;51.400;6.770;2024-01-07T10:43:12;1.70;99.90
32614;DHT22;19031;51.400;6.770;2024-01-07T10:45:38;1.70;99.90
32614;DHT22;19031;51.400;6.770;2024-01-07T10:48:04;1.60;99.90
32614;DHT22;19031;51.400;6.770;2024-01-07T10:50:33;1.50;99.90
32614;DHT22;19031;51.400;6.770;2024-01-07T10:53:03;1.60;99.90
32614;DHT22;19031;51.400;6.770;2024-01-07T10:55:34;1.50;99.90
32614;DHT22;19031;51.400;6.770;2024-01-07T10:58:03;1.40;99.90
32614;DHT22;19031;51.400;6.770;2024-01-07T11:00:29;1.40;99.90
32614;DHT22;19031;51.400;6.770;2024-01-07T11:03:09;1.50;99.90
32614;DHT22;19031;51.400;6.770;2024-01-07T11:05:58;1.40;99.90
32614;DHT22;19031;51.400;6.770;2024-01-07T11:08:31;1.50;99.90
32614;DHT22;19031;51.400;6.770;2024-01-07T11:11:05;1.50;99.90
32614;DHT22;19031;51.400;6.770;2024-01-07T11:13:36;1.50;99.90
32614;DHT22;19031;51.400;6.770;2024-01-07T11:16:04;1.40;99.90
32614;DHT22;19031;51.400;6.770;2024-01-07T11:18:31;1.40;99.90
32614;DHT22;19031;51.400;6.770;2024-01-07T11:21:00;1.50;99.90
32614;DHT22;19031;51.400;6.770;2024-01-07T11:23:33;1.40;99.90
32614;DHT22;19031;51.400;6.770;2024-01-07T11:26:02;1.30;99.90
32614;DHT22;19031;51.400;6.770;2024-01-07T11:28:54;1.30;99.90
32614;DHT22;19031;51.400;6.770;2024-01-07T11:31:44;1.30;99.90
32614;DHT22;19031;51.400;6.770;2024-01-07T11:34:41;1.20;99.90
32614;DHT22;19031;51.400;6.770;2024-01-07T11:37:11;1.30;99.90
32614;DHT22;19031;51.400;6.770;2024-01-07T11:39:43;1.40;99.90
32614;DHT22;19031;51.400;6.770;2024-01-07T11:42:10;1.50;99.90
32614;DHT22;19031;51.400;6.770;2024-01-07T11:44:37;1.40;99.90
32614;DHT22;19031;51.400;6.770;2024-01-07T11:47:04;1.50;99.90
32614;DHT22;19031;51.400;6.770;2024-01-07T11:49:31;1.20;99.90
32614;DHT22;19031;51.400;6.770;2024-01-07T11:51:57;1.20;99.90
32614;DHT22;19031;51.400;6.770;2024-01-07T11:54:23;1.20;99.90
32614;DHT22;19031;51.400;6.770;2024-01-07T11:56:48;1.20;99.90
32614;DHT22;19031;51.400;6.770;2024-01-07T11:59:14;1.10;99.90
32614;DHT22;19031;51.400;6.770;2024-01-07T12:01:39;1.20;99.90
32614;DHT22;19031;51.400;6.770;2024-01-07T12:04:05;1.20;99.90
32614;DHT22;19031;51.400;6.770;2024-01-07T12:06:30;1.10;99.90
32614;DHT22;19031;51.400;6.770;2024-01-07T12:08:56;1.10;99.90
32614;DHT22;19031;51.400;6.770;2024-01-07T12:11:22;1.10;99.90
32614;DHT22;19031;51.400;6.770;2024-01-07T12:13:48;1.20;99.90
32614;DHT22;19031;51.400;6.770;2024-01-07T12:16:15;1.20;99.90
32614;DHT22;19031;51.400;6.770;2024-01-07T12:18:41;1.30;99.90
32614;DHT22;19031;51.400;6.770;2024-01-07T12:21:07;1.20;99.90
32614;DHT22;19031;51.400;6.770;2024-01-07T12:23:37;1.20;99.90
32614;DHT22;19031;51.400;6.770;2024-01-07T12:26:12;1.10;99.90
32614;DHT22;19031;51.400;6.770;2024-01-07T12:28:38;1.10;99.90
32614;DHT22;19031;51.400;6.770;2024-01-07T12:31:05;1.10;99.90
32614;DHT22;19031;51.400;6.770;2024-01-07T12:33:31;0.90;99.90
32614;DHT22;19031;51.400;6.770;2024-01-07T12:35:57;1.00;99.90
32614;DHT22;19031;51.400;6.770;2024-01-07T12:38:29;0.80;99.90
32614;DHT22;19031;51.400;6.770;2024-01-07T12:40:54;0.80;99.90
32614;DHT22;19031;51.400;6.770;2024-01-07T12:43:20;0.80;99.90
32614;DHT22;19031;51.400;6.770;2024-01-07T12:45:48;0.70;99.90
32614;DHT22;19031;51.400;6.770;2024-01-07T12:48:13;0.70;99.90
32614;DHT22;19031;51.400;6.770;2024-01-07T12:50:39;0.80;99.90
32614;DHT22;19031;51.400;6.770;2024-01-07T12:53:05;0.70;99.90
32614;DHT22;19031;51.400;6.770;2024-01-07T12:55:32;0.80;99.90
32614;DHT22;19031;51.400;6.770;2024-01-07T12:57:57;0.70;99.90
32614;DHT22;19031;51.400;6.770;2024-01-07T13:00:24;0.80;99.90
32614;DHT22;19031;51.400;6.770;2024-01-07T13:02:50;0.70;99.90
32614;DHT22;19031;51.400;6.770;2024-01-07T13:05:16;0.80;99.90
32614;DHT22;19031;51.400;6.770;2024-01-07T13:07:42;0.70;99.90
32614;DHT22;19031;51.400;6.770;2024-01-07T13:10:08;0.70;99.90
32614;DHT22;19031;51.400;6.770;2024-01-07T13:12:35;0.80;99.90
32614;DHT22;19031;51.400;6.770;2024-01-07T13:15:00;0.80;99.90
32614;DHT22;19031;51.400;6.770;2024-01-07T13:17:26;0.90;99.90
32614;DHT22;19031;51.400;6.770;2024-01-07T13:19:52;0.90;99.90
32614;DHT22;19031;51.400;6.770;2024-01-07T13:22:18;0.90;99.90
32614;DHT22;19031;51.400;6.770;2024-01-07T13:24:44;0.80;99.90
32614;DHT22;19031;51.400;6.770;2024-01-07T13:27:09;0.90;99.90
32614;DHT22;19031;51.400;6.770;2024-01-07T13:29:35;0.90;99.90
32614;DHT22;19031;51.400;6.770;2024-01-07T13:32:00;0.90;99.90
32614;DHT22;19031;51.400;6.770;2024-01-07T13:34:26;0.90;99.90
32614;DHT22;19031;51.400;6.770;2024-01-07T13:36:52;0.80;99.90
32614;DHT22;19031;51.400;6.770;2024-01-07T13:39:19;0.80;99.90
32614;DHT22;19031;51.400;6.770;2024-01-07T13:41:46;0.80;99.90
32614;DHT22;19031;51.400;6.770;2024-01-07T13:44:12;0.80;99.90
32614;DHT22;19031;51.400;6.770;2024-01-07T13:46:44;0.80;99.90
32614;DHT22;19031;51.400;6.770;2024-01-07T13:49:11;0.80;99.90
32614;DHT22;19031;51.400;6.770;2024-01-07T13:51:36;0.70;99.90
32614;DHT22;19031;51.400;6.770;2024-01-07T13:54:03;0.70;99.90
32614;DHT22;19031;51.400;6.770;2024-01-07T13:56:29;0.70;99.90
32614;DHT22;19031;51.400;6.770;2024-01-07T13:58:55;0.70;99.90
32614;DHT22;19031;51.400;6.770;2024-01-07T14:01:21;0.80;99.90
32614;DHT22;19031;51.400;6.770;2024-01-07T14:03:47;0.80;99.90
32614;DHT22;19031;51.400;6.770;2024-01-07T14:06:12;0.70;99.90
32614;DHT22;19031;51.400;6.770;2024-01-07T14:08:38;0.80;99.90
32614;DHT22;19031;51.400;6.770;2024-01-07T14:11:04;0.70;99.90
32614;DHT22;19031;51.400;6.770;2024-01-07T14:13:32;0.80;99.90
32614;DHT22;19031;51.400;6.770;2024-01-07T14:15:58;0.70;99.90
32614;DHT22;19031;51.400;6.770;2024-01-07T14:18:23;0.70;99.90
32614;DHT22;19031;51.400;6.770;2024-01-07T14:20:49;0.80;99.90
32614;DHT22;19031;51.400;6.770;2024-01-07T14:23:15;0.80;99.90
32614;DHT22;19031;51.400;6.770;2024-01-07T14:25:40;0.80;99.90
32614;DHT22;19031;51.400;6.770;2024-01-07T14:28:07;0.80;99.90
32614;DHT22;19031;51.400;6.770;2024-01-07T14:30:33;0.80;99.90
32614;DHT22;19031;51.400;6.770;2024-01-07T14:32:58;0.80;99.90
32614;DHT22;19031;51.400;6.770;2024-01-07T14:35:24;0.90;99.90
32614;DHT22;19031;51.400;6.770;2024-01-07T14:37:51;0.90;99.90
32614;DHT22;19031;51.400;6.770;2024-01-07T14:40:18;1.00;99.90
32614;DHT22;19031;51.400;6.770;2024-01-07T14:42:43;1.00;99.90
32614;DHT22;19031;51.400;6.770;2024-01-07T14:45:09;1.00;99.90
32614;DHT22;19031;51.400;6.770;2024-01-07T14:47:34;1.00;99.90
32614;DHT22;19031;51.400;6.770;2024-01-07T14:50:00;0.80;99.90
32614;DHT22;19031;51.400;6.770;2024-01-07T14:52:28;0.80;99.90
32614;DHT22;19031;51.400;6.770;2024-01-07T14:54:53;0.80;99.90
32614;DHT22;19031;51.400;6.770;2024-01-07T14:57:19;0.80;99.90
32614;DHT22;19031;51.400;6.770;2024-01-07T14:59:44;0.90;99.90
32614;DHT22;19031;51.400;6.770;2024-01-07T15:02:10;0.90;99.90
32614;DHT22;19031;51.400;6.770;2024-01-07T15:04:35;0.90;99.90
32614;DHT22;19031;51.400;6.770;2024-01-07T15:07:01;0.90;99.90
32614;DHT22;19031;51.400;6.770;2024-01-07T15:09:26;0.90;99.90
32614;DHT22;19031;51.400;6.770;2024-01-07T15:11:52;0.90;99.90
32614;DHT22;19031;51.400;6.770;2024-01-07T15:14:18;1.00;99.90
32614;DHT22;19031;51.400;6.770;2024-01-07T15:16:45;1.00;99.90
32614;DHT22;19031;51.400;6.770;2024-01-07T15:19:17;1.10;99.90
32614;DHT22;19031;51.400;6.770;2024-01-07T15:21:42;1.00;99.90
32614;DHT22;19031;51.400;6.770;2024-01-07T15:24:08;1.10;99.90
32614;DHT22;19031;51.400;6.770;2024-01-07T15:26:34;1.10;99.90
32614;DHT22;19031;51.400;6.770;2024-01-07T15:29:01;1.10;99.90
32614;DHT22;19031;51.400;6.770;2024-01-07T15:31:27;1.00;99.90
32614;DHT22;19031;51.400;6.770;2024-01-07T15:33:53;0.90;99.90
32614;DHT22;19031;51.400;6.770;2024-01-07T15:36:18;1.00;99.90
32614;DHT22;19031;51.400;6.770;2024-01-07T15:38:44;0.90;99.90
32614;DHT22;19031;51.400;6.770;2024-01-07T15:41:09;0.90;99.90